Thunder radar more information blitzortung!


Radar de pluja more information rain snow radar


Visita la nostra xarxa de llocs de meteo:

Template documentation
and downloads

And another site



No particular awareness of the weather is required.    There are no Weather-warnings

Pagina Historial Weather Underground text

Diari Resum Juny 18, 2016 Unitats:  Mètric    Imperial   Tant
« Previous Dia
SegĂźent Dia »
Diari Setmana Mensual Anual Personalitzada
  Maxima: Minima: Media:
Temperatura: 25.8 °C 13.7 °C 18.1 °C
Punt de rosada: 11.0 °C 6.8 °C 8.8 °C
Humitat: 77 % 32 % 56 %
Wind Speed: 25.6 km/h 0.0 km/h 7.4 km/h
RĂ fegues de vent: 25.6 km/h - -
Vent:- - SE
Pression baro: 1023.9 hPa 1016.8 hPa -
Precipitacions: 0.0 mm    
Historical Graphs
 
 
Dades de taula per Juny 18, 2016
Temps Temperatura Punt de rosada Pression baro Vent Wind Speed RĂ fegues de vent Humitat Rainfall Rate (Hourly)
00:01 18.5 °C 9.0 °C 1016.8 hPa SW 4.2 km/h 4.2 km/h 54 % 0.0 mm
00:05 17.3 °C 9.2 °C 1017.8 hPa Calm     59 % 0.0 mm
00:15 17.1 °C 9.5 °C 1017.8 hPa Calm     61 % 0.0 mm
00:25 16.7 °C 9.6 °C 1017.8 hPa Calm     63 % 0.0 mm
00:35 16.5 °C 9.7 °C 1017.8 hPa Calm     64 % 0.0 mm
00:45 16.4 °C 9.6 °C 1017.8 hPa Calm     64 % 0.0 mm
00:55 16.3 °C 9.5 °C 1017.8 hPa Calm   1.6 km/h 64 % 0.0 mm
01:05 16.2 °C 9.4 °C 1017.8 hPa NE 1.6 km/h 3.2 km/h 64 % 0.0 mm
01:15 16.0 °C 9.4 °C 1017.8 hPa North 3.2 km/h 4.8 km/h 65 % 0.0 mm
01:25 15.9 °C 9.6 °C 1017.8 hPa Calm   3.2 km/h 66 % 0.0 mm
01:35 15.3 °C 9.4 °C 1017.8 hPa Calm   4.8 km/h 68 % 0.0 mm
01:45 15.0 °C 9.6 °C 1017.8 hPa Calm   1.6 km/h 70 % 0.0 mm
01:55 14.5 °C 9.5 °C 1017.8 hPa Calm   1.6 km/h 72 % 0.0 mm
02:05 14.3 °C 9.5 °C 1018.8 hPa Calm   1.6 km/h 73 % 0.0 mm
02:15 14.1 °C 9.6 °C 1018.8 hPa Calm   1.6 km/h 74 % 0.0 mm
02:25 14.1 °C 9.9 °C 1018.8 hPa Calm   1.6 km/h 76 % 0.0 mm
02:35 14.1 °C 10.1 °C 1018.8 hPa Calm   1.6 km/h 77 % 0.0 mm
02:45 14.2 °C 10.2 °C 1018.8 hPa Calm   1.6 km/h 77 % 0.0 mm
02:55 14.4 °C 10.0 °C 1018.8 hPa SW 4.8 km/h 6.4 km/h 75 % 0.0 mm
03:05 14.4 °C 10.0 °C 1018.8 hPa South 3.2 km/h 3.2 km/h 75 % 0.0 mm
03:15 14.3 °C 10.1 °C 1019.9 hPa SSW 3.2 km/h 4.8 km/h 76 % 0.0 mm
03:25 14.3 °C 10.1 °C 1019.9 hPa WSW 1.6 km/h 4.8 km/h 76 % 0.0 mm
03:35 14.4 °C 10.4 °C 1019.9 hPa Calm   3.2 km/h 77 % 0.0 mm
03:55 14.4 °C 10.4 °C 1019.9 hPa WSW 1.6 km/h 4.8 km/h 77 % 0.0 mm
04:05 14.9 °C 10.9 °C 1018.8 hPa SW 3.2 km/h 4.8 km/h 77 % 0.0 mm
04:15 15.2 °C 11.0 °C 1019.9 hPa Calm   4.8 km/h 76 % 0.0 mm
04:25 15.3 °C 10.7 °C 1019.9 hPa SW 1.6 km/h 3.2 km/h 74 % 0.0 mm
04:35 15.4 °C 10.6 °C 1019.9 hPa SW 1.6 km/h 6.4 km/h 73 % 0.0 mm
04:45 15.5 °C 10.7 °C 1019.9 hPa SW 1.6 km/h 4.8 km/h 73 % 0.0 mm
04:55 15.8 °C 10.6 °C 1019.9 hPa WSW 4.8 km/h 8.0 km/h 71 % 0.0 mm
05:05 16.5 °C 10.6 °C 1019.9 hPa WSW 3.2 km/h 6.4 km/h 68 % 0.0 mm
05:15 16.9 °C 10.3 °C 1019.9 hPa West 3.2 km/h 9.7 km/h 65 % 0.0 mm
05:25 17.9 °C 10.8 °C 1019.9 hPa West 4.8 km/h 9.7 km/h 63 % 0.0 mm
05:35 18.5 °C 10.8 °C 1019.9 hPa WSW 4.8 km/h 8.0 km/h 61 % 0.0 mm
05:40 18.9 °C 10.9 °C 1019.9 hPa WSW 3.2 km/h 4.8 km/h 60 % 0.0 mm
10:44 18.5 °C 9.8 °C 1019.9 hPa WSW 7.6 km/h 7.6 km/h 57 % 0.0 mm
10:49 18.8 °C 10.1 °C 1019.9 hPa SW 7.4 km/h 7.4 km/h 57 % 0.0 mm
10:54 19.0 °C 9.8 °C 1019.9 hPa WSW 7.4 km/h 7.4 km/h 55 % 0.0 mm
10:59 19.2 °C 9.7 °C 1019.9 hPa NW 7.4 km/h 7.4 km/h 54 % 0.0 mm
11:04 19.3 °C 9.5 °C 1019.9 hPa WNW 5.6 km/h 5.6 km/h 53 % 0.0 mm
11:09 19.5 °C 9.4 °C 1019.9 hPa SW 9.3 km/h 9.3 km/h 52 % 0.0 mm
11:14 19.7 °C 9.3 °C 1019.9 hPa WSW 9.3 km/h 9.3 km/h 51 % 0.0 mm
11:19 19.6 °C 8.6 °C 1019.9 hPa West 19.0 km/h 19.0 km/h 49 % 0.0 mm
11:24 19.7 °C 9.0 °C 1019.9 hPa WNW 9.3 km/h 9.3 km/h 50 % 0.0 mm
11:29 20.1 °C 9.3 °C 1019.9 hPa WSW 9.3 km/h 9.3 km/h 50 % 0.0 mm
11:34 20.6 °C 9.8 °C 1019.9 hPa WSW 5.6 km/h 6.1 km/h 50 % 0.0 mm
11:44 20.6 °C 9.5 °C 1019.9 hPa WSW 4.7 km/h 4.7 km/h 49 % 0.0 mm
11:49 20.7 °C 9.6 °C 1019.9 hPa WNW 9.3 km/h 9.3 km/h 49 % 0.0 mm
11:54 20.8 °C 9.4 °C 1019.9 hPa WSW 7.9 km/h 7.9 km/h 48 % 0.0 mm
11:59 20.8 °C 9.1 °C 1019.9 hPa WNW 11.1 km/h 11.1 km/h 47 % 0.0 mm
12:04 20.9 °C 8.8 °C 1019.9 hPa SW 13.7 km/h 13.7 km/h 46 % 0.0 mm
12:09 20.9 °C 9.2 °C 1019.9 hPa WSW 9.3 km/h 9.3 km/h 47 % 0.0 mm
12:14 21.1 °C 8.7 °C 1019.9 hPa SW 11.1 km/h 11.1 km/h 45 % 0.0 mm
12:19 21.3 °C 8.9 °C 1019.9 hPa WSW 9.3 km/h 9.3 km/h 45 % 0.0 mm
12:24 21.4 °C 8.6 °C 1019.9 hPa SSW 9.3 km/h 9.3 km/h 44 % 0.0 mm
12:29 21.5 °C 8.4 °C 1019.9 hPa WSW 9.3 km/h 9.3 km/h 43 % 0.0 mm
12:34 21.7 °C 8.2 °C 1019.9 hPa SW 6.4 km/h 6.4 km/h 42 % 0.0 mm
12:39 21.9 °C 8.4 °C 1019.9 hPa SSW 11.1 km/h 11.1 km/h 42 % 0.0 mm
12:44 22.2 °C 9.0 °C 1019.9 hPa WSW 9.7 km/h 9.7 km/h 43 % 0.0 mm
12:49 22.6 °C 9.4 °C 1019.9 hPa SW 6.9 km/h 6.9 km/h 43 % 0.0 mm
12:54 22.3 °C 8.8 °C 1019.9 hPa WSW 13.0 km/h 13.0 km/h 42 % 0.0 mm
12:59 22.2 °C 8.7 °C 1019.9 hPa North 5.6 km/h 5.6 km/h 42 % 0.0 mm
13:04 22.6 °C 9.1 °C 1019.9 hPa ESE 11.1 km/h 11.1 km/h 42 % 0.0 mm
13:09 22.6 °C 8.7 °C 1019.9 hPa WSW 13.0 km/h 13.0 km/h 41 % 0.0 mm
13:14 22.5 °C 8.6 °C 1019.9 hPa WNW 9.3 km/h 9.3 km/h 41 % 0.0 mm
13:19 22.9 °C 8.9 °C 1019.9 hPa WNW 13.0 km/h 13.0 km/h 41 % 0.0 mm
13:24 23.0 °C 7.9 °C 1019.9 hPa SSE 11.1 km/h 11.1 km/h 38 % 0.0 mm
13:29 23.2 °C 7.7 °C 1018.8 hPa West 14.8 km/h 14.8 km/h 37 % 0.0 mm
13:34 23.5 °C 8.3 °C 1018.8 hPa SW 11.1 km/h 11.1 km/h 38 % 0.0 mm
13:39 23.7 °C 8.2 °C 1018.8 hPa SSE 7.4 km/h 7.4 km/h 37 % 0.0 mm
13:44 23.4 °C 7.9 °C 1018.8 hPa West 9.3 km/h 9.3 km/h 37 % 0.0 mm
13:49 23.7 °C 7.7 °C 1018.8 hPa SSW 9.3 km/h 9.3 km/h 36 % 0.0 mm
13:54 24.1 °C 8.5 °C 1018.8 hPa West 5.6 km/h 5.6 km/h 37 % 0.0 mm
13:59 23.9 °C 7.9 °C 1018.8 hPa WSW 11.1 km/h 11.1 km/h 36 % 0.0 mm
14:04 23.6 °C 7.7 °C 1018.8 hPa NW 9.3 km/h 9.3 km/h 36 % 0.0 mm
14:09 24.0 °C 7.6 °C 1018.8 hPa SSW 6.9 km/h 7.2 km/h 35 % 0.0 mm
14:14 24.2 °C 7.8 °C 1018.8 hPa SE 13.0 km/h 13.0 km/h 35 % 0.0 mm
14:24 24.8 °C 8.3 °C 1018.8 hPa WSW 11.1 km/h 11.1 km/h 35 % 0.0 mm
14:29 24.8 °C 7.4 °C 1018.8 hPa SW 13.0 km/h 13.0 km/h 33 % 0.0 mm
14:34 25.0 °C 7.6 °C 1018.8 hPa South 9.7 km/h 9.7 km/h 33 % 0.0 mm
14:39 25.1 °C 7.7 °C 1018.8 hPa WSW 9.3 km/h 9.3 km/h 33 % 0.0 mm
14:44 24.4 °C 7.1 °C 1018.8 hPa SW 7.4 km/h 7.4 km/h 33 % 0.0 mm
14:49 24.3 °C 7.0 °C 1018.8 hPa WNW 7.4 km/h 7.4 km/h 33 % 0.0 mm
14:54 24.2 °C 7.3 °C 1018.8 hPa West 3.7 km/h 4.2 km/h 34 % 0.0 mm
14:59 24.1 °C 6.8 °C 1018.8 hPa SE 5.6 km/h 5.6 km/h 33 % 0.0 mm
15:09 25.8 °C 7.8 °C 1018.8 hPa ENE 10.3 km/h 10.3 km/h 32 % 0.0 mm
15:14 25.4 °C 7.5 °C 1018.8 hPa East 7.4 km/h 7.4 km/h 32 % 0.0 mm
15:19 23.8 °C 8.2 °C 1018.8 hPa NE 13.0 km/h 13.0 km/h 37 % 0.0 mm
15:24 22.6 °C 8.3 °C 1018.8 hPa SE 20.4 km/h 20.4 km/h 40 % 0.0 mm
15:29 21.7 °C 8.6 °C 1018.8 hPa ENE 13.0 km/h 13.0 km/h 43 % 0.0 mm
15:34 21.0 °C 8.6 °C 1018.8 hPa ESE 18.5 km/h 18.5 km/h 45 % 0.0 mm
15:39 20.5 °C 8.5 °C 1018.8 hPa ENE 18.5 km/h 18.5 km/h 46 % 0.0 mm
15:44 20.0 °C 8.9 °C 1019.9 hPa ENE 18.5 km/h 18.5 km/h 49 % 0.0 mm
15:49 19.6 °C 8.9 °C 1019.9 hPa ESE 20.4 km/h 20.4 km/h 50 % 0.0 mm
15:54 19.6 °C 8.9 °C 1019.9 hPa ENE 24.1 km/h 24.1 km/h 50 % 0.0 mm
15:59 19.4 °C 9.0 °C 1019.9 hPa East 14.8 km/h 14.8 km/h 51 % 0.0 mm
16:04 19.1 °C 8.7 °C 1019.9 hPa ESE 16.7 km/h 16.7 km/h 51 % 0.0 mm
16:09 18.9 °C 8.8 °C 1019.9 hPa ENE 18.5 km/h 18.5 km/h 52 % 0.0 mm
16:14 18.7 °C 8.6 °C 1019.9 hPa ESE 18.5 km/h 18.5 km/h 52 % 0.0 mm
16:19 18.7 °C 8.9 °C 1019.9 hPa ENE 20.9 km/h 20.9 km/h 53 % 0.0 mm
16:24 18.6 °C 8.8 °C 1019.9 hPa ENE 20.4 km/h 20.4 km/h 53 % 0.0 mm
16:29 18.5 °C 8.7 °C 1018.8 hPa ESE 20.4 km/h 20.4 km/h 53 % 0.0 mm
16:35 18.4 °C 9.2 °C 1018.8 hPa NE 11.1 km/h 11.1 km/h 55 % 0.0 mm
16:40 18.3 °C 9.4 °C 1018.8 hPa East 9.3 km/h 9.3 km/h 56 % 0.0 mm
16:45 18.2 °C 9.8 °C 1019.9 hPa ENE 11.1 km/h 11.1 km/h 58 % 0.0 mm
16:50 18.1 °C 9.9 °C 1019.9 hPa East 7.4 km/h 7.4 km/h 59 % 0.0 mm
16:55 18.3 °C 10.4 °C 1019.9 hPa East 10.8 km/h 10.8 km/h 60 % 0.0 mm
17:00 18.3 °C 10.4 °C 1020.9 hPa East 13.0 km/h 13.0 km/h 60 % 0.0 mm
17:05 18.7 °C 10.8 °C 1020.9 hPa NE 22.2 km/h 22.2 km/h 60 % 0.0 mm
17:10 18.6 °C 10.9 °C 1020.9 hPa ENE 11.1 km/h 11.1 km/h 61 % 0.0 mm
17:15 18.4 °C 10.6 °C 1020.9 hPa East 11.3 km/h 17.7 km/h 60 % 0.0 mm
17:20 18.2 °C 10.3 °C 1020.9 hPa ENE 9.7 km/h 16.1 km/h 60 % 0.0 mm
17:25 17.5 °C 9.4 °C 1020.9 hPa NE 11.3 km/h 19.3 km/h 59 % 0.0 mm
17:30 17.2 °C 9.1 °C 1021.9 hPa NE 11.3 km/h 14.5 km/h 59 % 0.0 mm
17:35 17.1 °C 8.5 °C 1021.9 hPa NE 8.0 km/h 14.5 km/h 57 % 0.0 mm
17:40 16.9 °C 8.1 °C 1021.9 hPa NE 11.3 km/h 14.5 km/h 56 % 0.0 mm
17:45 17.0 °C 7.9 °C 1021.9 hPa ENE 8.0 km/h 9.7 km/h 55 % 0.0 mm
17:50 17.3 °C 8.2 °C 1021.9 hPa ENE 9.3 km/h 9.3 km/h 55 % 0.0 mm
17:55 17.6 °C 8.1 °C 1021.9 hPa NE 8.0 km/h 11.3 km/h 54 % 0.0 mm
18:00 18.0 °C 8.6 °C 1021.9 hPa ENE 9.7 km/h 14.5 km/h 54 % 0.0 mm
18:05 18.0 °C 8.6 °C 1021.9 hPa East 11.3 km/h 20.9 km/h 54 % 0.0 mm
18:15 17.6 °C 8.4 °C 1021.9 hPa ENE 14.8 km/h 14.8 km/h 55 % 0.0 mm
18:20 17.5 °C 8.3 °C 1021.9 hPa SE 25.6 km/h 25.6 km/h 55 % 0.0 mm
18:25 17.0 °C 8.2 °C 1021.9 hPa SE 16.9 km/h 16.9 km/h 56 % 0.0 mm
18:30 16.9 °C 8.6 °C 1021.9 hPa ESE 14.8 km/h 14.8 km/h 58 % 0.0 mm
18:35 16.4 °C 8.4 °C 1021.9 hPa SSE 16.1 km/h 16.1 km/h 59 % 0.0 mm
18:40 16.4 °C 8.6 °C 1021.9 hPa ESE 11.3 km/h 22.5 km/h 60 % 0.0 mm
18:45 16.2 °C 8.4 °C 1020.9 hPa East 12.9 km/h 19.3 km/h 60 % 0.0 mm
18:50 15.9 °C 8.4 °C 1020.9 hPa East 12.9 km/h 22.5 km/h 61 % 0.0 mm
18:55 15.8 °C 8.6 °C 1020.9 hPa East 9.7 km/h 19.3 km/h 62 % 0.0 mm
19:00 15.9 °C 8.8 °C 1020.9 hPa East 9.7 km/h 16.1 km/h 63 % 0.0 mm
19:05 16.0 °C 8.9 °C 1020.9 hPa East 8.0 km/h 16.1 km/h 63 % 0.0 mm
19:10 15.9 °C 8.8 °C 1020.9 hPa ESE 13.0 km/h 13.0 km/h 63 % 0.0 mm
19:15 15.8 °C 8.8 °C 1021.9 hPa ENE 13.0 km/h 13.0 km/h 63 % 0.0 mm
19:20 15.7 °C 8.7 °C 1021.9 hPa East 9.3 km/h 9.3 km/h 63 % 0.0 mm
19:25 15.7 °C 8.7 °C 1021.9 hPa East 9.7 km/h 17.7 km/h 63 % 0.0 mm
19:30 15.7 °C 8.7 °C 1021.9 hPa ESE 8.0 km/h 9.7 km/h 63 % 0.0 mm
19:35 15.7 °C 8.4 °C 1021.9 hPa ESE 8.0 km/h 11.3 km/h 62 % 0.0 mm
19:40 15.7 °C 8.4 °C 1021.9 hPa East 4.8 km/h 9.7 km/h 62 % 0.0 mm
19:45 15.8 °C 8.3 °C 1021.9 hPa East 8.0 km/h 11.3 km/h 61 % 0.0 mm
19:50 15.8 °C 8.3 °C 1021.9 hPa East 8.0 km/h 11.3 km/h 61 % 0.0 mm
19:55 15.8 °C 8.3 °C 1021.9 hPa ESE 9.7 km/h 9.7 km/h 61 % 0.0 mm
20:00 15.9 °C 8.4 °C 1021.9 hPa ESE 8.0 km/h 11.3 km/h 61 % 0.0 mm
20:05 15.9 °C 8.4 °C 1021.9 hPa ESE 8.0 km/h 11.3 km/h 61 % 0.0 mm
20:10 15.9 °C 8.2 °C 1021.9 hPa ESE 11.1 km/h 11.1 km/h 60 % 0.0 mm
20:15 15.9 °C 8.2 °C 1021.9 hPa ESE 7.4 km/h 7.4 km/h 60 % 0.0 mm
20:20 15.9 °C 8.2 °C 1021.9 hPa ESE 7.4 km/h 7.4 km/h 60 % 0.0 mm
20:25 16.0 °C 8.2 °C 1021.9 hPa ESE 3.7 km/h 3.9 km/h 60 % 0.0 mm
20:30 16.0 °C 8.2 °C 1021.9 hPa ESE 4.2 km/h 5.3 km/h 60 % 0.0 mm
20:35 13.7 °C 8.3 °C 1023.9 hPa SW 1.6 km/h 1.6 km/h 70 % 0.0 mm
20:40 16.0 °C 8.2 °C 1021.9 hPa East 3.2 km/h 4.8 km/h 60 % 0.0 mm
20:45 16.0 °C 8.2 °C 1021.9 hPa East 1.6 km/h 4.8 km/h 60 % 0.0 mm
20:50 16.0 °C 8.2 °C 1021.9 hPa Calm   3.2 km/h 60 % 0.0 mm
20:55 16.0 °C 8.2 °C 1021.9 hPa Calm   3.2 km/h 60 % 0.0 mm
21:05 16.0 °C 8.2 °C 1021.9 hPa ENE 1.6 km/h 3.2 km/h 60 % 0.0 mm
21:10 16.0 °C 8.2 °C 1021.9 hPa NE 1.6 km/h 3.2 km/h 60 % 0.0 mm
21:15 16.0 °C 8.2 °C 1022.9 hPa NE 2.3 km/h 2.3 km/h 60 % 0.0 mm
21:20 16.0 °C 8.2 °C 1022.9 hPa NE 2.3 km/h 2.3 km/h 60 % 0.0 mm
21:25 16.0 °C 8.2 °C 1022.9 hPa NE 2.3 km/h 2.3 km/h 60 % 0.0 mm
21:30 15.9 °C 8.2 °C 1022.9 hPa NE 2.3 km/h 2.3 km/h 60 % 0.0 mm
21:35 15.9 °C 8.2 °C 1022.9 hPa NE 2.3 km/h 2.3 km/h 60 % 0.0 mm
21:40 15.8 °C 8.1 °C 1022.9 hPa NE 2.3 km/h 2.3 km/h 60 % 0.0 mm
21:45 15.8 °C 8.3 °C 1022.9 hPa NE 1.6 km/h 1.6 km/h 61 % 0.0 mm
21:50 15.7 °C 8.2 °C 1022.9 hPa NE 2.3 km/h 2.3 km/h 61 % 0.0 mm
21:55 15.7 °C 8.2 °C 1022.9 hPa NE 1.6 km/h 1.6 km/h 61 % 0.0 mm
22:00 15.7 °C 8.2 °C 1022.9 hPa NE 1.6 km/h 1.6 km/h 61 % 0.0 mm
22:05 15.6 °C 8.1 °C 1022.9 hPa NE 1.6 km/h 1.6 km/h 61 % 0.0 mm
22:10 15.5 °C 8.0 °C 1022.9 hPa NE 2.3 km/h 2.3 km/h 61 % 0.0 mm
22:15 15.3 °C 7.8 °C 1023.9 hPa NE 2.3 km/h 2.3 km/h 61 % 0.0 mm
22:20 15.2 °C 7.7 °C 1023.9 hPa NE 2.3 km/h 2.3 km/h 61 % 0.0 mm
22:25 14.9 °C 7.4 °C 1023.9 hPa NE 2.3 km/h 2.3 km/h 61 % 0.0 mm
22:35 14.8 °C 7.6 °C 1023.9 hPa NE 2.3 km/h 2.3 km/h 62 % 0.0 mm
22:40 14.9 °C 7.4 °C 1023.9 hPa NE 2.3 km/h 2.3 km/h 61 % 0.0 mm
22:45 14.9 °C 7.4 °C 1023.9 hPa NE 1.6 km/h 1.6 km/h 61 % 0.0 mm
22:50 14.9 °C 7.4 °C 1023.9 hPa NE 1.6 km/h 1.6 km/h 61 % 0.0 mm
22:55 14.9 °C 7.4 °C 1023.9 hPa NE 1.6 km/h 1.6 km/h 61 % 0.0 mm
23:00 14.9 °C 7.4 °C 1023.9 hPa NE 1.6 km/h 1.6 km/h 61 % 0.0 mm
23:05 14.9 °C 7.4 °C 1023.9 hPa NE 1.6 km/h 1.6 km/h 61 % 0.0 mm
23:10 14.9 °C 7.4 °C 1023.9 hPa NE 2.3 km/h 2.3 km/h 61 % 0.0 mm
23:15 14.9 °C 7.4 °C 1023.9 hPa NE 1.6 km/h 1.6 km/h 61 % 0.0 mm
23:20 14.9 °C 7.4 °C 1023.9 hPa NE 2.3 km/h 2.3 km/h 61 % 0.0 mm
23:25 14.9 °C 7.4 °C 1023.9 hPa NE 1.6 km/h 1.6 km/h 61 % 0.0 mm
23:30 14.9 °C 7.4 °C 1023.9 hPa NE 1.6 km/h 1.6 km/h 61 % 0.0 mm
23:35 14.9 °C 7.4 °C 1023.9 hPa NE 2.3 km/h 2.3 km/h 61 % 0.0 mm
23:40 14.9 °C 7.4 °C 1023.9 hPa NE 2.3 km/h 2.3 km/h 61 % 0.0 mm
23:45 14.9 °C 7.4 °C 1023.9 hPa NE 2.3 km/h 2.3 km/h 61 % 0.0 mm
23:50 14.9 °C 7.4 °C 1023.9 hPa NE 2.3 km/h 2.3 km/h 61 % 0.0 mm
23:55 14.9 °C 7.4 °C 1023.9 hPa NE 1.6 km/h 1.6 km/h 61 % 0.0 mm
Meteo Sesrovires
Elogis d' Weather Underground - 3.5 mb

Guio original per  Jim McMurry - jmcmurry@mwt.net Adaptat per a la plantilla per  Wim van der Kuil - Leuven-Template.eu

Trobareu la nostra informacio del temps tambe a:

Weather Underground

AWEKAS